sensor_id;sensor_type;location;lat;lon;timestamp;P1;durP1;ratioP1;P2;durP2;ratioP2
72209;SDS011;60113;48.762;12.302;2022-09-03T00:02:46;10.35;;;4.38;;
72209;SDS011;60113;48.762;12.302;2022-09-03T00:11:18;5.25;;;3.95;;
72209;SDS011;60113;48.762;12.302;2022-09-03T00:16:21;9.07;;;4.85;;
72209;SDS011;60113;48.762;12.302;2022-09-03T00:19:00;7.65;;;4.50;;
72209;SDS011;60113;48.762;12.302;2022-09-03T00:23:57;12.13;;;5.18;;
72209;SDS011;60113;48.762;12.302;2022-09-03T00:26:26;13.45;;;5.57;;
72209;SDS011;60113;48.762;12.302;2022-09-03T00:29:00;7.10;;;5.57;;
72209;SDS011;60113;48.762;12.302;2022-09-03T00:31:34;7.68;;;6.05;;
72209;SDS011;60113;48.762;12.302;2022-09-03T00:34:55;10.40;;;6.18;;
72209;SDS011;60113;48.762;12.302;2022-09-03T00:37:04;10.20;;;6.30;;
72209;SDS011;60113;48.762;12.302;2022-09-03T00:39:32;8.68;;;6.35;;
72209;SDS011;60113;48.762;12.302;2022-09-03T00:44:37;12.25;;;6.03;;
72209;SDS011;60113;48.762;12.302;2022-09-03T01:09:42;8.48;;;5.00;;
72209;SDS011;60113;48.762;12.302;2022-09-03T01:12:21;5.07;;;4.00;;
72209;SDS011;60113;48.762;12.302;2022-09-03T01:14:56;6.65;;;4.68;;
72209;SDS011;60113;48.762;12.302;2022-09-03T01:17:50;8.32;;;5.35;;
72209;SDS011;60113;48.762;12.302;2022-09-03T01:20:42;7.25;;;4.80;;
72209;SDS011;60113;48.762;12.302;2022-09-03T01:23:22;10.45;;;5.10;;
72209;SDS011;60113;48.762;12.302;2022-09-03T01:25:52;5.82;;;4.43;;
72209;SDS011;60113;48.762;12.302;2022-09-03T01:42:24;8.40;;;6.30;;
72209;SDS011;60113;48.762;12.302;2022-09-03T01:53:47;9.05;;;5.60;;
72209;SDS011;60113;48.762;12.302;2022-09-03T02:01:57;10.30;;;6.88;;
72209;SDS011;60113;48.762;12.302;2022-09-03T02:04:26;13.80;;;7.03;;
72209;SDS011;60113;48.762;12.302;2022-09-03T02:06:53;9.23;;;6.05;;
72209;SDS011;60113;48.762;12.302;2022-09-03T02:09:21;5.30;;;4.80;;
72209;SDS011;60113;48.762;12.302;2022-09-03T02:11:58;8.27;;;4.80;;
72209;SDS011;60113;48.762;12.302;2022-09-03T02:14:35;7.35;;;4.55;;
72209;SDS011;60113;48.762;12.302;2022-09-03T02:17:03;8.57;;;4.45;;
72209;SDS011;60113;48.762;12.302;2022-09-03T02:19:30;5.53;;;4.28;;
72209;SDS011;60113;48.762;12.302;2022-09-03T02:21:57;8.27;;;4.88;;
72209;SDS011;60113;48.762;12.302;2022-09-03T02:24:23;7.88;;;5.05;;
72209;SDS011;60113;48.762;12.302;2022-09-03T02:26:49;9.00;;;5.00;;
72209;SDS011;60113;48.762;12.302;2022-09-03T02:29:15;8.65;;;5.57;;
72209;SDS011;60113;48.762;12.302;2022-09-03T02:31:42;9.73;;;6.95;;
72209;SDS011;60113;48.762;12.302;2022-09-03T02:34:08;12.00;;;7.30;;
72209;SDS011;60113;48.762;12.302;2022-09-03T02:36:35;8.90;;;6.32;;
72209;SDS011;60113;48.762;12.302;2022-09-03T02:39:03;10.80;;;6.50;;
72209;SDS011;60113;48.762;12.302;2022-09-03T02:41:30;11.23;;;5.93;;
72209;SDS011;60113;48.762;12.302;2022-09-03T02:44:04;7.20;;;4.80;;
72209;SDS011;60113;48.762;12.302;2022-09-03T02:46:39;8.55;;;4.57;;
72209;SDS011;60113;48.762;12.302;2022-09-03T02:49:08;13.55;;;5.20;;
72209;SDS011;60113;48.762;12.302;2022-09-03T02:51:38;11.82;;;4.20;;
72209;SDS011;60113;48.762;12.302;2022-09-03T02:54:06;7.32;;;4.85;;
72209;SDS011;60113;48.762;12.302;2022-09-03T02:56:33;7.53;;;4.18;;
72209;SDS011;60113;48.762;12.302;2022-09-03T02:58:59;7.97;;;4.45;;
72209;SDS011;60113;48.762;12.302;2022-09-03T03:01:25;5.40;;;3.92;;
72209;SDS011;60113;48.762;12.302;2022-09-03T03:03:50;5.28;;;4.05;;
72209;SDS011;60113;48.762;12.302;2022-09-03T03:06:18;10.05;;;4.55;;
72209;SDS011;60113;48.762;12.302;2022-09-03T03:08:47;6.93;;;3.83;;
72209;SDS011;60113;48.762;12.302;2022-09-03T03:11:13;7.63;;;4.30;;
72209;SDS011;60113;48.762;12.302;2022-09-03T03:13:43;5.65;;;3.83;;
72209;SDS011;60113;48.762;12.302;2022-09-03T03:16:12;7.82;;;3.70;;
72209;SDS011;60113;48.762;12.302;2022-09-03T03:18:38;6.72;;;3.75;;
72209;SDS011;60113;48.762;12.302;2022-09-03T03:21:05;4.30;;;3.60;;
72209;SDS011;60113;48.762;12.302;2022-09-03T03:23:33;5.53;;;3.75;;
72209;SDS011;60113;48.762;12.302;2022-09-03T03:26:03;4.65;;;3.50;;
72209;SDS011;60113;48.762;12.302;2022-09-03T03:28:30;3.95;;;3.30;;
72209;SDS011;60113;48.762;12.302;2022-09-03T03:31:08;5.57;;;3.72;;
72209;SDS011;60113;48.762;12.302;2022-09-03T03:33:38;4.88;;;4.32;;
72209;SDS011;60113;48.762;12.302;2022-09-03T03:36:08;6.22;;;3.92;;
72209;SDS011;60113;48.762;12.302;2022-09-03T03:38:39;14.00;;;4.00;;
72209;SDS011;60113;48.762;12.302;2022-09-03T03:41:06;7.28;;;4.68;;
72209;SDS011;60113;48.762;12.302;2022-09-03T03:43:40;9.23;;;4.57;;
72209;SDS011;60113;48.762;12.302;2022-09-03T03:46:05;5.45;;;4.35;;
72209;SDS011;60113;48.762;12.302;2022-09-03T03:48:31;7.05;;;4.70;;
72209;SDS011;60113;48.762;12.302;2022-09-03T03:51:01;9.43;;;4.90;;
72209;SDS011;60113;48.762;12.302;2022-09-03T03:53:28;7.45;;;5.20;;
72209;SDS011;60113;48.762;12.302;2022-09-03T03:55:55;8.90;;;5.63;;
72209;SDS011;60113;48.762;12.302;2022-09-03T03:58:21;10.43;;;5.50;;
72209;SDS011;60113;48.762;12.302;2022-09-03T04:00:47;7.65;;;5.68;;
72209;SDS011;60113;48.762;12.302;2022-09-03T04:03:13;7.75;;;6.20;;
72209;SDS011;60113;48.762;12.302;2022-09-03T04:05:38;11.73;;;5.72;;
72209;SDS011;60113;48.762;12.302;2022-09-03T04:08:04;6.15;;;5.22;;
72209;SDS011;60113;48.762;12.302;2022-09-03T04:10:30;9.32;;;5.10;;
72209;SDS011;60113;48.762;12.302;2022-09-03T04:12:55;8.88;;;5.40;;
72209;SDS011;60113;48.762;12.302;2022-09-03T04:15:20;17.42;;;5.72;;
72209;SDS011;60113;48.762;12.302;2022-09-03T04:17:46;6.45;;;5.50;;
72209;SDS011;60113;48.762;12.302;2022-09-03T04:20:13;6.60;;;5.97;;
72209;SDS011;60113;48.762;12.302;2022-09-03T04:22:38;10.85;;;5.65;;
72209;SDS011;60113;48.762;12.302;2022-09-03T04:25:04;7.28;;;5.35;;
72209;SDS011;60113;48.762;12.302;2022-09-03T04:27:30;9.48;;;6.30;;
72209;SDS011;60113;48.762;12.302;2022-09-03T04:29:55;8.90;;;5.38;;
72209;SDS011;60113;48.762;12.302;2022-09-03T04:32:22;9.02;;;6.30;;
72209;SDS011;60113;48.762;12.302;2022-09-03T04:35:07;14.07;;;6.18;;
72209;SDS011;60113;48.762;12.302;2022-09-03T04:37:35;11.73;;;7.15;;
72209;SDS011;60113;48.762;12.302;2022-09-03T04:40:01;9.43;;;7.43;;
72209;SDS011;60113;48.762;12.302;2022-09-03T04:42:27;9.05;;;7.53;;
72209;SDS011;60113;48.762;12.302;2022-09-03T04:44:52;15.35;;;6.85;;
72209;SDS011;60113;48.762;12.302;2022-09-03T04:47:18;10.95;;;6.97;;
72209;SDS011;60113;48.762;12.302;2022-09-03T04:49:44;11.85;;;8.20;;
72209;SDS011;60113;48.762;12.302;2022-09-03T04:52:09;14.27;;;7.50;;
72209;SDS011;60113;48.762;12.302;2022-09-03T04:54:35;10.32;;;7.10;;
72209;SDS011;60113;48.762;12.302;2022-09-03T04:57:00;10.32;;;6.75;;
72209;SDS011;60113;48.762;12.302;2022-09-03T04:59:26;10.75;;;7.60;;
72209;SDS011;60113;48.762;12.302;2022-09-03T05:01:51;15.35;;;9.75;;
72209;SDS011;60113;48.762;12.302;2022-09-03T05:04:17;11.40;;;9.18;;
72209;SDS011;60113;48.762;12.302;2022-09-03T05:06:44;13.85;;;8.68;;
72209;SDS011;60113;48.762;12.302;2022-09-03T05:09:10;14.15;;;9.25;;
72209;SDS011;60113;48.762;12.302;2022-09-03T05:11:35;21.63;;;9.25;;
72209;SDS011;60113;48.762;12.302;2022-09-03T05:14:02;15.23;;;8.15;;
72209;SDS011;60113;48.762;12.302;2022-09-03T05:16:29;20.08;;;13.98;;
72209;SDS011;60113;48.762;12.302;2022-09-03T05:18:57;29.10;;;11.95;;
72209;SDS011;60113;48.762;12.302;2022-09-03T05:21:24;18.15;;;11.07;;
72209;SDS011;60113;48.762;12.302;2022-09-03T05:23:50;13.93;;;10.65;;
72209;SDS011;60113;48.762;12.302;2022-09-03T05:26:18;16.70;;;11.85;;
72209;SDS011;60113;48.762;12.302;2022-09-03T05:28:44;18.65;;;11.82;;
72209;SDS011;60113;48.762;12.302;2022-09-03T05:31:11;19.27;;;11.27;;
72209;SDS011;60113;48.762;12.302;2022-09-03T05:33:41;20.27;;;11.27;;
72209;SDS011;60113;48.762;12.302;2022-09-03T05:36:22;17.73;;;11.20;;
72209;SDS011;60113;48.762;12.302;2022-09-03T05:38:48;12.13;;;8.77;;
72209;SDS011;60113;48.762;12.302;2022-09-03T05:41:16;10.85;;;8.25;;
72209;SDS011;60113;48.762;12.302;2022-09-03T05:43:42;14.15;;;8.07;;
72209;SDS011;60113;48.762;12.302;2022-09-03T05:46:12;11.20;;;7.43;;
72209;SDS011;60113;48.762;12.302;2022-09-03T05:48:39;13.18;;;7.05;;
72209;SDS011;60113;48.762;12.302;2022-09-03T05:51:07;10.32;;;6.97;;
72209;SDS011;60113;48.762;12.302;2022-09-03T05:53:42;11.55;;;6.88;;
72209;SDS011;60113;48.762;12.302;2022-09-03T05:56:10;5.72;;;4.05;;
72209;SDS011;60113;48.762;12.302;2022-09-03T05:58:40;9.07;;;4.25;;
72209;SDS011;60113;48.762;12.302;2022-09-03T06:01:10;6.70;;;3.65;;
72209;SDS011;60113;48.762;12.302;2022-09-03T06:03:37;6.78;;;3.30;;
72209;SDS011;60113;48.762;12.302;2022-09-03T06:06:03;4.55;;;2.90;;
72209;SDS011;60113;48.762;12.302;2022-09-03T06:08:29;4.80;;;3.05;;
72209;SDS011;60113;48.762;12.302;2022-09-03T06:10:58;7.78;;;3.10;;
72209;SDS011;60113;48.762;12.302;2022-09-03T06:13:25;5.75;;;3.00;;
72209;SDS011;60113;48.762;12.302;2022-09-03T06:15:55;5.25;;;2.55;;
72209;SDS011;60113;48.762;12.302;2022-09-03T06:18:21;4.40;;;2.85;;
72209;SDS011;60113;48.762;12.302;2022-09-03T06:20:57;5.40;;;2.90;;
72209;SDS011;60113;48.762;12.302;2022-09-03T06:23:24;6.35;;;2.30;;
72209;SDS011;60113;48.762;12.302;2022-09-03T06:28:35;8.38;;;1.95;;
72209;SDS011;60113;48.762;12.302;2022-09-03T06:31:02;2.42;;;1.65;;
72209;SDS011;60113;48.762;12.302;2022-09-03T06:33:30;7.28;;;1.95;;
72209;SDS011;60113;48.762;12.302;2022-09-03T06:35:58;2.80;;;1.95;;
72209;SDS011;60113;48.762;12.302;2022-09-03T06:38:34;3.78;;;1.98;;
72209;SDS011;60113;48.762;12.302;2022-09-03T06:41:00;4.90;;;1.60;;
72209;SDS011;60113;48.762;12.302;2022-09-03T06:43:30;3.25;;;2.03;;
72209;SDS011;60113;48.762;12.302;2022-09-03T06:46:02;3.83;;;2.08;;
72209;SDS011;60113;48.762;12.302;2022-09-03T06:48:41;3.50;;;1.85;;
72209;SDS011;60113;48.762;12.302;2022-09-03T06:51:14;5.88;;;2.45;;
72209;SDS011;60113;48.762;12.302;2022-09-03T06:53:45;3.67;;;2.30;;
72209;SDS011;60113;48.762;12.302;2022-09-03T06:56:13;5.65;;;2.00;;
72209;SDS011;60113;48.762;12.302;2022-09-03T06:58:41;4.95;;;2.00;;
72209;SDS011;60113;48.762;12.302;2022-09-03T07:01:09;4.88;;;1.50;;
72209;SDS011;60113;48.762;12.302;2022-09-03T07:03:38;6.18;;;1.80;;
72209;SDS011;60113;48.762;12.302;2022-09-03T07:06:16;4.38;;;1.63;;
72209;SDS011;60113;48.762;12.302;2022-09-03T07:08:44;2.90;;;1.70;;
72209;SDS011;60113;48.762;12.302;2022-09-03T07:11:12;3.13;;;1.40;;
72209;SDS011;60113;48.762;12.302;2022-09-03T07:13:41;1.80;;;1.40;;
72209;SDS011;60113;48.762;12.302;2022-09-03T07:16:16;8.63;;;1.30;;
72209;SDS011;60113;48.762;12.302;2022-09-03T07:18:47;3.75;;;1.52;;
72209;SDS011;60113;48.762;12.302;2022-09-03T07:21:14;3.70;;;1.23;;
72209;SDS011;60113;48.762;12.302;2022-09-03T07:23:41;5.78;;;1.33;;
72209;SDS011;60113;48.762;12.302;2022-09-03T07:26:12;4.38;;;1.23;;
72209;SDS011;60113;48.762;12.302;2022-09-03T07:28:40;7.68;;;1.58;;
72209;SDS011;60113;48.762;12.302;2022-09-03T07:31:08;4.25;;;1.70;;
72209;SDS011;60113;48.762;12.302;2022-09-03T07:33:36;3.03;;;1.23;;
72209;SDS011;60113;48.762;12.302;2022-09-03T07:36:04;10.95;;;1.38;;
72209;SDS011;60113;48.762;12.302;2022-09-03T07:38:32;5.38;;;1.63;;
72209;SDS011;60113;48.762;12.302;2022-09-03T07:40:59;13.00;;;1.50;;
72209;SDS011;60113;48.762;12.302;2022-09-03T07:43:26;3.50;;;1.42;;
72209;SDS011;60113;48.762;12.302;2022-09-03T07:45:53;2.28;;;1.20;;
72209;SDS011;60113;48.762;12.302;2022-09-03T07:48:22;2.85;;;1.45;;
72209;SDS011;60113;48.762;12.302;2022-09-03T07:50:48;5.90;;;1.52;;
72209;SDS011;60113;48.762;12.302;2022-09-03T07:53:17;3.00;;;1.40;;
72209;SDS011;60113;48.762;12.302;2022-09-03T07:55:45;5.15;;;1.50;;
72209;SDS011;60113;48.762;12.302;2022-09-03T07:58:12;2.72;;;1.45;;
72209;SDS011;60113;48.762;12.302;2022-09-03T08:00:38;3.45;;;1.27;;
72209;SDS011;60113;48.762;12.302;2022-09-03T08:03:04;10.75;;;1.92;;
72209;SDS011;60113;48.762;12.302;2022-09-03T08:05:33;2.30;;;1.30;;
72209;SDS011;60113;48.762;12.302;2022-09-03T08:08:01;4.80;;;1.90;;
72209;SDS011;60113;48.762;12.302;2022-09-03T08:10:27;4.43;;;1.60;;
72209;SDS011;60113;48.762;12.302;2022-09-03T08:12:54;3.35;;;2.15;;
72209;SDS011;60113;48.762;12.302;2022-09-03T08:15:20;8.30;;;1.50;;
72209;SDS011;60113;48.762;12.302;2022-09-03T08:17:46;4.00;;;1.30;;
72209;SDS011;60113;48.762;12.302;2022-09-03T08:20:11;3.67;;;1.40;;
72209;SDS011;60113;48.762;12.302;2022-09-03T08:22:37;4.65;;;1.60;;
72209;SDS011;60113;48.762;12.302;2022-09-03T08:25:03;3.78;;;1.33;;
72209;SDS011;60113;48.762;12.302;2022-09-03T08:27:28;2.40;;;1.35;;
72209;SDS011;60113;48.762;12.302;2022-09-03T08:29:55;2.72;;;1.45;;
72209;SDS011;60113;48.762;12.302;2022-09-03T08:32:21;3.88;;;1.77;;
72209;SDS011;60113;48.762;12.302;2022-09-03T08:34:48;4.03;;;1.60;;
72209;SDS011;60113;48.762;12.302;2022-09-03T08:37:17;5.88;;;1.77;;
72209;SDS011;60113;48.762;12.302;2022-09-03T08:39:43;3.33;;;1.63;;
72209;SDS011;60113;48.762;12.302;2022-09-03T08:44:57;2.10;;;1.35;;
72209;SDS011;60113;48.762;12.302;2022-09-03T08:50:04;4.10;;;1.67;;
72209;SDS011;60113;48.762;12.302;2022-09-03T08:52:41;5.35;;;1.88;;
72209;SDS011;60113;48.762;12.302;2022-09-03T08:57:44;6.03;;;2.15;;
72209;SDS011;60113;48.762;12.302;2022-09-03T09:00:14;8.18;;;1.77;;
72209;SDS011;60113;48.762;12.302;2022-09-03T09:02:44;5.50;;;1.70;;
72209;SDS011;60113;48.762;12.302;2022-09-03T09:05:37;6.45;;;1.63;;
72209;SDS011;60113;48.762;12.302;2022-09-03T09:08:17;3.38;;;1.52;;
72209;SDS011;60113;48.762;12.302;2022-09-03T09:19:27;6.35;;;1.58;;
72209;SDS011;60113;48.762;12.302;2022-09-03T09:22:06;5.07;;;1.50;;
72209;SDS011;60113;48.762;12.302;2022-09-03T09:24:41;5.03;;;1.52;;
72209;SDS011;60113;48.762;12.302;2022-09-03T09:27:11;5.13;;;1.45;;
72209;SDS011;60113;48.762;12.302;2022-09-03T09:29:41;3.50;;;2.35;;
72209;SDS011;60113;48.762;12.302;2022-09-03T09:32:10;3.17;;;1.50;;
72209;SDS011;60113;48.762;12.302;2022-09-03T09:34:39;6.55;;;1.27;;
72209;SDS011;60113;48.762;12.302;2022-09-03T09:37:07;3.58;;;1.42;;
72209;SDS011;60113;48.762;12.302;2022-09-03T09:39:35;2.72;;;1.50;;
72209;SDS011;60113;48.762;12.302;2022-09-03T09:42:04;2.08;;;1.45;;
72209;SDS011;60113;48.762;12.302;2022-09-03T09:47:06;6.45;;;1.63;;
72209;SDS011;60113;48.762;12.302;2022-09-03T09:49:37;3.10;;;1.48;;
72209;SDS011;60113;48.762;12.302;2022-09-03T09:52:16;3.83;;;1.40;;
72209;SDS011;60113;48.762;12.302;2022-09-03T09:54:42;8.82;;;3.25;;
72209;SDS011;60113;48.762;12.302;2022-09-03T09:57:16;2.00;;;1.40;;
72209;SDS011;60113;48.762;12.302;2022-09-03T10:00:09;6.70;;;2.35;;
72209;SDS011;60113;48.762;12.302;2022-09-03T10:02:47;5.57;;;1.40;;
72209;SDS011;60113;48.762;12.302;2022-09-03T10:05:22;3.20;;;1.85;;
72209;SDS011;60113;48.762;12.302;2022-09-03T10:08:00;4.85;;;1.50;;
72209;SDS011;60113;48.762;12.302;2022-09-03T10:10:47;3.30;;;1.40;;
72209;SDS011;60113;48.762;12.302;2022-09-03T10:13:17;3.70;;;1.92;;
72209;SDS011;60113;48.762;12.302;2022-09-03T10:16:06;2.88;;;1.30;;
72209;SDS011;60113;48.762;12.302;2022-09-03T10:18:44;3.10;;;1.58;;
72209;SDS011;60113;48.762;12.302;2022-09-03T10:21:19;3.45;;;1.58;;
72209;SDS011;60113;48.762;12.302;2022-09-03T10:26:39;5.20;;;1.88;;
72209;SDS011;60113;48.762;12.302;2022-09-03T10:29:08;4.10;;;1.40;;
72209;SDS011;60113;48.762;12.302;2022-09-03T10:31:36;4.25;;;1.42;;
72209;SDS011;60113;48.762;12.302;2022-09-03T10:48:01;2.05;;;1.33;;
72209;SDS011;60113;48.762;12.302;2022-09-03T10:50:46;5.38;;;1.50;;
72209;SDS011;60113;48.762;12.302;2022-09-03T10:56:06;5.35;;;1.42;;
72209;SDS011;60113;48.762;12.302;2022-09-03T11:01:26;2.25;;;1.42;;
72209;SDS011;60113;48.762;12.302;2022-09-03T11:07:16;3.28;;;1.60;;
72209;SDS011;60113;48.762;12.302;2022-09-03T11:09:50;4.50;;;1.63;;
72209;SDS011;60113;48.762;12.302;2022-09-03T11:12:31;4.80;;;1.70;;
72209;SDS011;60113;48.762;12.302;2022-09-03T11:15:04;5.13;;;1.73;;
72209;SDS011;60113;48.762;12.302;2022-09-03T11:17:39;8.63;;;1.98;;
72209;SDS011;60113;48.762;12.302;2022-09-03T11:22:32;4.78;;;1.60;;
72209;SDS011;60113;48.762;12.302;2022-09-03T11:24:59;2.67;;;1.50;;
72209;SDS011;60113;48.762;12.302;2022-09-03T11:30:23;7.10;;;1.48;;
72209;SDS011;60113;48.762;12.302;2022-09-03T11:32:53;4.38;;;1.60;;
72209;SDS011;60113;48.762;12.302;2022-09-03T11:37:59;10.32;;;1.65;;
72209;SDS011;60113;48.762;12.302;2022-09-03T11:43:06;8.40;;;1.73;;
72209;SDS011;60113;48.762;12.302;2022-09-03T11:45:38;3.65;;;1.52;;
72209;SDS011;60113;48.762;12.302;2022-09-03T11:54:23;2.22;;;1.30;;
72209;SDS011;60113;48.762;12.302;2022-09-03T11:56:50;5.95;;;1.55;;
72209;SDS011;60113;48.762;12.302;2022-09-03T11:59:30;4.82;;;1.63;;
72209;SDS011;60113;48.762;12.302;2022-09-03T12:02:03;9.25;;;2.03;;
72209;SDS011;60113;48.762;12.302;2022-09-03T12:04:58;11.18;;;1.50;;
72209;SDS011;60113;48.762;12.302;2022-09-03T12:07:39;4.68;;;1.67;;
72209;SDS011;60113;48.762;12.302;2022-09-03T12:10:16;3.10;;;1.70;;
72209;SDS011;60113;48.762;12.302;2022-09-03T12:15:30;5.13;;;1.92;;
72209;SDS011;60113;48.762;12.302;2022-09-03T12:20:43;4.07;;;1.40;;
72209;SDS011;60113;48.762;12.302;2022-09-03T12:23:10;3.40;;;1.52;;
72209;SDS011;60113;48.762;12.302;2022-09-03T12:25:42;14.10;;;1.60;;
72209;SDS011;60113;48.762;12.302;2022-09-03T12:30:41;4.20;;;1.77;;
72209;SDS011;60113;48.762;12.302;2022-09-03T12:33:06;4.25;;;1.70;;
72209;SDS011;60113;48.762;12.302;2022-09-03T12:35:36;3.67;;;1.50;;
72209;SDS011;60113;48.762;12.302;2022-09-03T12:38:01;3.40;;;1.50;;
72209;SDS011;60113;48.762;12.302;2022-09-03T12:40:27;6.25;;;1.73;;
72209;SDS011;60113;48.762;12.302;2022-09-03T12:42:54;4.07;;;1.77;;
72209;SDS011;60113;48.762;12.302;2022-09-03T12:45:26;3.00;;;1.50;;
72209;SDS011;60113;48.762;12.302;2022-09-03T12:47:52;3.85;;;1.55;;
72209;SDS011;60113;48.762;12.302;2022-09-03T12:50:18;4.90;;;1.58;;
72209;SDS011;60113;48.762;12.302;2022-09-03T12:52:59;5.82;;;1.55;;
72209;SDS011;60113;48.762;12.302;2022-09-03T12:58:24;3.97;;;1.70;;
72209;SDS011;60113;48.762;12.302;2022-09-03T13:01:10;1.77;;;1.50;;
72209;SDS011;60113;48.762;12.302;2022-09-03T13:06:20;3.63;;;1.50;;
72209;SDS011;60113;48.762;12.302;2022-09-03T13:08:58;3.50;;;1.58;;
72209;SDS011;60113;48.762;12.302;2022-09-03T13:11:26;6.07;;;1.70;;
72209;SDS011;60113;48.762;12.302;2022-09-03T13:14:06;2.63;;;1.52;;
72209;SDS011;60113;48.762;12.302;2022-09-03T13:32:32;4.10;;;1.48;;
72209;SDS011;60113;48.762;12.302;2022-09-03T13:40:41;4.18;;;1.52;;
72209;SDS011;60113;48.762;12.302;2022-09-03T13:46:11;2.97;;;1.55;;
72209;SDS011;60113;48.762;12.302;2022-09-03T13:48:42;3.63;;;1.48;;
72209;SDS011;60113;48.762;12.302;2022-09-03T13:51:29;2.40;;;1.45;;
72209;SDS011;60113;48.762;12.302;2022-09-03T14:13:12;3.50;;;2.10;;
72209;SDS011;60113;48.762;12.302;2022-09-03T14:16:23;2.38;;;1.70;;
72209;SDS011;60113;48.762;12.302;2022-09-03T14:19:02;2.55;;;1.60;;
72209;SDS011;60113;48.762;12.302;2022-09-03T14:21:45;5.97;;;1.70;;
72209;SDS011;60113;48.762;12.302;2022-09-03T14:24:25;4.13;;;1.80;;
72209;SDS011;60113;48.762;12.302;2022-09-03T14:27:03;5.60;;;1.80;;
72209;SDS011;60113;48.762;12.302;2022-09-03T14:29:33;2.38;;;1.48;;
72209;SDS011;60113;48.762;12.302;2022-09-03T14:45:12;4.13;;;1.60;;
72209;SDS011;60113;48.762;12.302;2022-09-03T14:58:36;5.22;;;1.90;;
72209;SDS011;60113;48.762;12.302;2022-09-03T15:01:20;10.90;;;4.47;;
72209;SDS011;60113;48.762;12.302;2022-09-03T15:09:26;4.97;;;3.25;;
72209;SDS011;60113;48.762;12.302;2022-09-03T15:14:54;4.53;;;2.40;;
72209;SDS011;60113;48.762;12.302;2022-09-03T15:28:37;6.00;;;1.80;;
72209;SDS011;60113;48.762;12.302;2022-09-03T15:36:42;4.15;;;1.80;;
72209;SDS011;60113;48.762;12.302;2022-09-03T15:39:21;4.15;;;1.77;;
72209;SDS011;60113;48.762;12.302;2022-09-03T15:41:58;3.58;;;1.42;;
72209;SDS011;60113;48.762;12.302;2022-09-03T15:44:41;2.22;;;1.52;;
72209;SDS011;60113;48.762;12.302;2022-09-03T15:47:13;9.50;;;2.17;;
72209;SDS011;60113;48.762;12.302;2022-09-03T15:55:40;3.58;;;1.80;;
72209;SDS011;60113;48.762;12.302;2022-09-03T16:00:57;7.35;;;2.13;;
72209;SDS011;60113;48.762;12.302;2022-09-03T16:06:35;4.95;;;2.00;;
72209;SDS011;60113;48.762;12.302;2022-09-03T16:12:07;3.47;;;1.80;;
72209;SDS011;60113;48.762;12.302;2022-09-03T16:14:45;4.50;;;1.90;;
72209;SDS011;60113;48.762;12.302;2022-09-03T16:17:27;4.90;;;2.10;;
72209;SDS011;60113;48.762;12.302;2022-09-03T16:20:07;2.65;;;1.77;;
72209;SDS011;60113;48.762;12.302;2022-09-03T16:22:47;3.10;;;1.80;;
72209;SDS011;60113;48.762;12.302;2022-09-03T16:25:28;3.38;;;1.92;;
72209;SDS011;60113;48.762;12.302;2022-09-03T16:28:06;2.60;;;2.10;;
72209;SDS011;60113;48.762;12.302;2022-09-03T16:30:46;2.80;;;1.88;;
72209;SDS011;60113;48.762;12.302;2022-09-03T16:33:59;4.30;;;2.30;;
72209;SDS011;60113;48.762;12.302;2022-09-03T16:41:48;5.20;;;2.50;;
72209;SDS011;60113;48.762;12.302;2022-09-03T16:49:46;9.02;;;2.50;;
72209;SDS011;60113;48.762;12.302;2022-09-03T16:54:58;9.45;;;2.65;;
72209;SDS011;60113;48.762;12.302;2022-09-03T17:14:39;9.63;;;3.00;;
72209;SDS011;60113;48.762;12.302;2022-09-03T17:22:37;3.78;;;3.08;;
72209;SDS011;60113;48.762;12.302;2022-09-03T17:25:28;6.22;;;3.50;;
72209;SDS011;60113;48.762;12.302;2022-09-03T17:36:21;3.80;;;3.05;;
72209;SDS011;60113;48.762;12.302;2022-09-03T17:41:44;6.35;;;3.55;;
72209;SDS011;60113;48.762;12.302;2022-09-03T17:49:53;5.93;;;3.92;;
72209;SDS011;60113;48.762;12.302;2022-09-03T18:00:59;8.30;;;4.75;;
72209;SDS011;60113;48.762;12.302;2022-09-03T18:03:44;7.47;;;5.07;;
72209;SDS011;60113;48.762;12.302;2022-09-03T18:09:58;12.52;;;5.18;;
72209;SDS011;60113;48.762;12.302;2022-09-03T18:18:11;8.02;;;5.35;;
72209;SDS011;60113;48.762;12.302;2022-09-03T18:20:40;25.05;;;21.02;;
72209;SDS011;60113;48.762;12.302;2022-09-03T18:23:30;15.18;;;10.18;;
72209;SDS011;60113;48.762;12.302;2022-09-03T18:26:24;10.50;;;5.88;;
72209;SDS011;60113;48.762;12.302;2022-09-03T18:29:13;8.07;;;5.20;;
72209;SDS011;60113;48.762;12.302;2022-09-03T18:32:03;8.55;;;6.13;;
72209;SDS011;60113;48.762;12.302;2022-09-03T18:34:48;11.60;;;6.47;;
72209;SDS011;60113;48.762;12.302;2022-09-03T18:37:32;11.60;;;6.90;;
72209;SDS011;60113;48.762;12.302;2022-09-03T18:40:17;5.65;;;4.32;;
72209;SDS011;60113;48.762;12.302;2022-09-03T18:43:10;6.75;;;4.32;;
72209;SDS011;60113;48.762;12.302;2022-09-03T18:52:05;10.60;;;4.50;;
72209;SDS011;60113;48.762;12.302;2022-09-03T18:55:11;12.05;;;4.30;;
72209;SDS011;60113;48.762;12.302;2022-09-03T19:01:07;7.70;;;3.65;;
72209;SDS011;60113;48.762;12.302;2022-09-03T19:04:12;6.47;;;3.30;;
72209;SDS011;60113;48.762;12.302;2022-09-03T19:07:17;4.72;;;3.35;;
72209;SDS011;60113;48.762;12.302;2022-09-03T19:13:38;6.97;;;3.42;;
72209;SDS011;60113;48.762;12.302;2022-09-03T19:22:44;5.53;;;2.08;;
72209;SDS011;60113;48.762;12.302;2022-09-03T19:25:28;3.97;;;2.47;;
72209;SDS011;60113;48.762;12.302;2022-09-03T19:28:28;4.28;;;2.50;;
72209;SDS011;60113;48.762;12.302;2022-09-03T19:37:40;11.70;;;3.40;;
72209;SDS011;60113;48.762;12.302;2022-09-03T19:46:53;14.02;;;4.18;;
72209;SDS011;60113;48.762;12.302;2022-09-03T19:50:03;9.90;;;3.67;;
72209;SDS011;60113;48.762;12.302;2022-09-03T19:53:03;6.57;;;3.90;;
72209;SDS011;60113;48.762;12.302;2022-09-03T19:55:54;5.40;;;3.60;;
72209;SDS011;60113;48.762;12.302;2022-09-03T19:58:42;8.43;;;3.47;;
72209;SDS011;60113;48.762;12.302;2022-09-03T20:01:32;5.88;;;3.13;;
72209;SDS011;60113;48.762;12.302;2022-09-03T20:04:17;6.63;;;2.83;;
72209;SDS011;60113;48.762;12.302;2022-09-03T20:07:07;6.32;;;1.90;;
72209;SDS011;60113;48.762;12.302;2022-09-03T20:09:53;6.55;;;2.17;;
72209;SDS011;60113;48.762;12.302;2022-09-03T20:12:43;2.42;;;1.85;;
72209;SDS011;60113;48.762;12.302;2022-09-03T20:15:11;3.25;;;1.88;;
72209;SDS011;60113;48.762;12.302;2022-09-03T20:17:45;3.63;;;1.80;;
72209;SDS011;60113;48.762;12.302;2022-09-03T20:20:33;2.60;;;1.55;;
72209;SDS011;60113;48.762;12.302;2022-09-03T20:26:03;4.40;;;2.10;;
72209;SDS011;60113;48.762;12.302;2022-09-03T20:28:52;2.47;;;1.38;;
72209;SDS011;60113;48.762;12.302;2022-09-03T20:37:16;3.67;;;1.42;;
72209;SDS011;60113;48.762;12.302;2022-09-03T20:51:12;2.47;;;1.60;;
72209;SDS011;60113;48.762;12.302;2022-09-03T20:59:13;5.18;;;1.90;;
72209;SDS011;60113;48.762;12.302;2022-09-03T21:01:49;3.75;;;1.65;;
72209;SDS011;60113;48.762;12.302;2022-09-03T21:10:00;4.30;;;2.00;;
72209;SDS011;60113;48.762;12.302;2022-09-03T21:12:33;3.83;;;2.33;;
72209;SDS011;60113;48.762;12.302;2022-09-03T21:20:17;9.15;;;3.00;;
72209;SDS011;60113;48.762;12.302;2022-09-03T21:23:04;13.85;;;3.28;;
72209;SDS011;60113;48.762;12.302;2022-09-03T21:25:39;6.53;;;4.05;;
72209;SDS011;60113;48.762;12.302;2022-09-03T21:30:42;9.30;;;3.55;;
72209;SDS011;60113;48.762;12.302;2022-09-03T21:33:28;6.13;;;3.90;;
72209;SDS011;60113;48.762;12.302;2022-09-03T21:36:14;7.43;;;4.88;;
72209;SDS011;60113;48.762;12.302;2022-09-03T21:38:45;11.88;;;4.70;;